sensor_id;sensor_type;location;lat;lon;timestamp;pressure;altitude;pressure_sealevel;temperature;humidity
21902;BME280;11115;46.038;14.612;2023-03-21T00:02:26;98628.91;;;3.78;100.00
21902;BME280;11115;46.038;14.612;2023-03-21T00:05:01;98624.91;;;3.90;100.00
21902;BME280;11115;46.038;14.612;2023-03-21T00:07:42;98630.72;;;3.99;100.00
21902;BME280;11115;46.038;14.612;2023-03-21T00:10:21;98627.31;;;3.82;100.00
21902;BME280;11115;46.038;14.612;2023-03-21T00:13:10;98564.34;;;3.45;100.00
21902;BME280;11115;46.038;14.612;2023-03-21T00:15:53;98616.44;;;3.92;100.00
21902;BME280;11115;46.038;14.612;2023-03-21T00:18:49;98591.78;;;3.87;100.00
21902;BME280;11115;46.038;14.612;2023-03-21T00:21:22;98596.44;;;4.34;100.00
21902;BME280;11115;46.038;14.612;2023-03-21T00:24:22;98611.31;;;4.48;100.00
21902;BME280;11115;46.038;14.612;2023-03-21T00:27:01;98607.25;;;4.61;100.00
21902;BME280;11115;46.038;14.612;2023-03-21T00:29:50;98607.94;;;4.31;100.00
21902;BME280;11115;46.038;14.612;2023-03-21T00:32:25;98602.66;;;4.24;100.00
21902;BME280;11115;46.038;14.612;2023-03-21T00:35:08;98607.66;;;4.32;100.00
21902;BME280;11115;46.038;14.612;2023-03-21T00:38:04;98600.56;;;3.89;100.00
21902;BME280;11115;46.038;14.612;2023-03-21T00:40:35;98602.75;;;3.92;100.00
21902;BME280;11115;46.038;14.612;2023-03-21T00:43:16;98595.16;;;4.04;100.00
21902;BME280;11115;46.038;14.612;2023-03-21T00:45:46;98579.31;;;4.06;100.00
21902;BME280;11115;46.038;14.612;2023-03-21T00:48:17;98598.16;;;4.45;100.00
21902;BME280;11115;46.038;14.612;2023-03-21T00:50:55;98598.09;;;4.35;100.00
21902;BME280;11115;46.038;14.612;2023-03-21T00:53:29;98570.94;;;4.28;100.00
21902;BME280;11115;46.038;14.612;2023-03-21T00:55:59;98582.28;;;4.05;100.00
21902;BME280;11115;46.038;14.612;2023-03-21T00:58:30;98587.00;;;3.72;100.00
21902;BME280;11115;46.038;14.612;2023-03-21T01:01:05;98585.16;;;3.83;100.00
21902;BME280;11115;46.038;14.612;2023-03-21T01:03:37;98581.66;;;3.50;100.00
21902;BME280;11115;46.038;14.612;2023-03-21T01:06:12;98587.56;;;3.74;100.00
21902;BME280;11115;46.038;14.612;2023-03-21T01:08:55;98583.16;;;4.05;100.00
21902;BME280;11115;46.038;14.612;2023-03-21T01:11:28;98574.06;;;4.05;100.00
21902;BME280;11115;46.038;14.612;2023-03-21T01:13:59;98573.03;;;4.11;100.00
21902;BME280;11115;46.038;14.612;2023-03-21T01:16:51;98575.22;;;4.09;100.00
21902;BME280;11115;46.038;14.612;2023-03-21T01:19:22;98569.81;;;4.24;100.00
21902;BME280;11115;46.038;14.612;2023-03-21T01:22:18;98568.66;;;4.10;100.00
21902;BME280;11115;46.038;14.612;2023-03-21T01:24:54;98570.47;;;3.94;100.00
21902;BME280;11115;46.038;14.612;2023-03-21T01:27:39;98573.97;;;3.47;100.00
21902;BME280;11115;46.038;14.612;2023-03-21T01:30:11;98568.56;;;3.57;100.00
21902;BME280;11115;46.038;14.612;2023-03-21T01:32:58;98579.22;;;3.54;100.00
21902;BME280;11115;46.038;14.612;2023-03-21T01:35:31;98578.59;;;3.84;100.00
21902;BME280;11115;46.038;14.612;2023-03-21T01:38:16;98572.25;;;3.73;100.00
21902;BME280;11115;46.038;14.612;2023-03-21T01:40:59;98571.47;;;3.46;100.00
21902;BME280;11115;46.038;14.612;2023-03-21T01:43:36;98576.63;;;3.42;100.00
21902;BME280;11115;46.038;14.612;2023-03-21T01:49:45;98566.56;;;3.85;100.00
21902;BME280;11115;46.038;14.612;2023-03-21T01:52:45;98558.16;;;3.96;100.00
21902;BME280;11115;46.038;14.612;2023-03-21T01:55:27;98561.31;;;3.41;100.00
21902;BME280;11115;46.038;14.612;2023-03-21T01:58:05;98561.50;;;3.02;100.00
21902;BME280;11115;46.038;14.612;2023-03-21T02:00:52;98557.22;;;3.12;100.00
21902;BME280;11115;46.038;14.612;2023-03-21T02:03:50;98552.31;;;3.46;100.00
21902;BME280;11115;46.038;14.612;2023-03-21T02:06:47;98564.00;;;3.36;100.00
21902;BME280;11115;46.038;14.612;2023-03-21T02:09:55;98568.41;;;3.37;100.00
21902;BME280;11115;46.038;14.612;2023-03-21T02:12:27;98535.16;;;3.50;100.00
21902;BME280;11115;46.038;14.612;2023-03-21T02:15:31;98554.34;;;3.60;100.00
21902;BME280;11115;46.038;14.612;2023-03-21T02:27:31;98556.84;;;3.03;100.00
21902;BME280;11115;46.038;14.612;2023-03-21T02:37:09;98556.69;;;2.61;100.00
21902;BME280;11115;46.038;14.612;2023-03-21T02:48:35;98554.13;;;3.03;100.00
21902;BME280;11115;46.038;14.612;2023-03-21T02:51:22;98519.88;;;2.90;100.00
21902;BME280;11115;46.038;14.612;2023-03-21T02:54:00;98553.38;;;3.40;100.00
21902;BME280;11115;46.038;14.612;2023-03-21T02:56:57;98536.56;;;3.26;100.00
21902;BME280;11115;46.038;14.612;2023-03-21T02:59:32;98545.97;;;3.08;100.00
21902;BME280;11115;46.038;14.612;2023-03-21T03:02:25;98553.06;;;2.77;100.00
21902;BME280;11115;46.038;14.612;2023-03-21T03:04:54;98536.25;;;2.41;100.00
21902;BME280;11115;46.038;14.612;2023-03-21T03:07:39;98558.53;;;2.55;100.00
21902;BME280;11115;46.038;14.612;2023-03-21T03:13:16;98560.19;;;2.34;100.00
21902;BME280;11115;46.038;14.612;2023-03-21T03:17:02;98566.28;;;2.63;100.00
21902;BME280;11115;46.038;14.612;2023-03-21T03:20:16;98564.69;;;2.46;100.00
21902;BME280;11115;46.038;14.612;2023-03-21T03:23:02;98557.97;;;2.53;100.00
21902;BME280;11115;46.038;14.612;2023-03-21T03:25:55;98547.41;;;2.62;100.00
21902;BME280;11115;46.038;14.612;2023-03-21T03:28:30;98569.13;;;2.73;100.00
21902;BME280;11115;46.038;14.612;2023-03-21T03:31:24;98570.84;;;2.80;100.00
21902;BME280;11115;46.038;14.612;2023-03-21T03:34:05;98564.28;;;2.81;100.00
21902;BME280;11115;46.038;14.612;2023-03-21T03:36:56;98564.06;;;2.87;100.00
21902;BME280;11115;46.038;14.612;2023-03-21T03:39:26;98561.81;;;3.06;100.00
21902;BME280;11115;46.038;14.612;2023-03-21T03:42:04;98565.59;;;3.00;100.00
21902;BME280;11115;46.038;14.612;2023-03-21T03:44:58;98567.34;;;3.11;100.00
21902;BME280;11115;46.038;14.612;2023-03-21T03:50:57;98563.16;;;3.30;100.00
21902;BME280;11115;46.038;14.612;2023-03-21T03:54:20;98549.75;;;3.02;100.00
21902;BME280;11115;46.038;14.612;2023-03-21T03:56:52;98555.09;;;3.19;100.00
21902;BME280;11115;46.038;14.612;2023-03-21T03:59:40;98552.69;;;2.95;100.00
21902;BME280;11115;46.038;14.612;2023-03-21T04:02:25;98543.03;;;3.15;100.00
21902;BME280;11115;46.038;14.612;2023-03-21T04:05:03;98550.66;;;2.86;100.00
21902;BME280;11115;46.038;14.612;2023-03-21T04:07:59;98550.00;;;3.00;100.00
21902;BME280;11115;46.038;14.612;2023-03-21T04:10:37;98523.31;;;2.81;100.00
21902;BME280;11115;46.038;14.612;2023-03-21T04:13:09;98553.22;;;2.92;100.00
21902;BME280;11115;46.038;14.612;2023-03-21T04:16:14;98554.41;;;2.53;100.00
21902;BME280;11115;46.038;14.612;2023-03-21T04:18:42;98556.44;;;2.62;100.00
21902;BME280;11115;46.038;14.612;2023-03-21T04:21:18;98553.25;;;2.49;100.00
21902;BME280;11115;46.038;14.612;2023-03-21T04:24:04;98548.00;;;2.20;100.00
21902;BME280;11115;46.038;14.612;2023-03-21T04:26:34;98555.63;;;1.79;100.00
21902;BME280;11115;46.038;14.612;2023-03-21T04:29:26;98556.94;;;1.94;100.00
21902;BME280;11115;46.038;14.612;2023-03-21T04:32:23;98566.69;;;2.11;100.00
21902;BME280;11115;46.038;14.612;2023-03-21T04:35:09;98568.19;;;2.41;100.00
21902;BME280;11115;46.038;14.612;2023-03-21T04:37:54;98561.06;;;2.18;100.00
21902;BME280;11115;46.038;14.612;2023-03-21T04:40:31;98571.72;;;1.98;100.00
21902;BME280;11115;46.038;14.612;2023-03-21T04:43:02;98573.84;;;2.34;100.00
21902;BME280;11115;46.038;14.612;2023-03-21T04:45:40;98575.63;;;2.46;100.00
21902;BME280;11115;46.038;14.612;2023-03-21T04:48:16;98581.31;;;2.66;100.00
21902;BME280;11115;46.038;14.612;2023-03-21T04:50:51;98573.44;;;2.48;100.00
21902;BME280;11115;46.038;14.612;2023-03-21T04:53:23;98594.81;;;2.72;100.00
21902;BME280;11115;46.038;14.612;2023-03-21T04:56:07;98578.03;;;2.64;100.00
21902;BME280;11115;46.038;14.612;2023-03-21T04:58:40;98598.97;;;2.80;100.00
21902;BME280;11115;46.038;14.612;2023-03-21T05:01:12;98590.69;;;2.97;100.00
21902;BME280;11115;46.038;14.612;2023-03-21T05:03:42;98590.28;;;3.10;100.00
21902;BME280;11115;46.038;14.612;2023-03-21T05:06:15;98600.63;;;3.08;100.00
21902;BME280;11115;46.038;14.612;2023-03-21T05:08:44;98599.66;;;3.19;100.00
21902;BME280;11115;46.038;14.612;2023-03-21T05:11:15;98599.06;;;3.12;100.00
21902;BME280;11115;46.038;14.612;2023-03-21T05:13:51;98599.94;;;2.91;100.00
21902;BME280;11115;46.038;14.612;2023-03-21T05:16:37;98603.13;;;3.10;100.00
21902;BME280;11115;46.038;14.612;2023-03-21T05:19:16;98610.19;;;3.05;100.00
21902;BME280;11115;46.038;14.612;2023-03-21T05:21:52;98612.13;;;2.61;100.00
21902;BME280;11115;46.038;14.612;2023-03-21T05:24:36;98610.28;;;2.67;100.00
21902;BME280;11115;46.038;14.612;2023-03-21T05:27:20;98610.78;;;2.64;100.00
21902;BME280;11115;46.038;14.612;2023-03-21T05:30:15;98588.44;;;2.45;100.00
21902;BME280;11115;46.038;14.612;2023-03-21T05:32:51;98602.50;;;2.54;100.00
21902;BME280;11115;46.038;14.612;2023-03-21T05:35:26;98623.38;;;2.43;100.00
21902;BME280;11115;46.038;14.612;2023-03-21T05:38:06;98622.84;;;2.68;100.00
21902;BME280;11115;46.038;14.612;2023-03-21T05:40:51;98621.03;;;2.95;100.00
21902;BME280;11115;46.038;14.612;2023-03-21T05:43:38;98646.09;;;3.14;100.00
21902;BME280;11115;46.038;14.612;2023-03-21T05:46:10;98630.47;;;3.10;100.00
21902;BME280;11115;46.038;14.612;2023-03-21T05:48:39;98630.03;;;3.23;100.00
21902;BME280;11115;46.038;14.612;2023-03-21T05:51:20;98636.06;;;3.25;100.00
21902;BME280;11115;46.038;14.612;2023-03-21T05:53:50;98606.97;;;3.09;100.00
21902;BME280;11115;46.038;14.612;2023-03-21T05:56:20;98637.91;;;3.14;100.00
21902;BME280;11115;46.038;14.612;2023-03-21T05:59:07;98613.25;;;2.87;100.00
21902;BME280;11115;46.038;14.612;2023-03-21T06:01:45;98641.06;;;3.06;100.00
21902;BME280;11115;46.038;14.612;2023-03-21T06:04:16;98638.25;;;2.96;100.00
21902;BME280;11115;46.038;14.612;2023-03-21T06:06:48;98647.63;;;3.05;100.00
21902;BME280;11115;46.038;14.612;2023-03-21T06:09:21;98645.94;;;2.77;100.00
21902;BME280;11115;46.038;14.612;2023-03-21T06:11:56;98642.69;;;2.80;100.00
21902;BME280;11115;46.038;14.612;2023-03-21T06:14:24;98644.88;;;3.05;100.00
21902;BME280;11115;46.038;14.612;2023-03-21T06:17:31;98633.66;;;3.01;100.00
21902;BME280;11115;46.038;14.612;2023-03-21T06:20:12;98654.59;;;3.18;100.00
21902;BME280;11115;46.038;14.612;2023-03-21T06:22:53;98654.50;;;3.34;100.00
21902;BME280;11115;46.038;14.612;2023-03-21T06:25:29;98651.47;;;3.31;100.00
21902;BME280;11115;46.038;14.612;2023-03-21T06:27:58;98656.31;;;3.24;100.00
21902;BME280;11115;46.038;14.612;2023-03-21T06:30:31;98655.94;;;3.42;100.00
21902;BME280;11115;46.038;14.612;2023-03-21T06:33:16;98664.75;;;3.22;100.00
21902;BME280;11115;46.038;14.612;2023-03-21T06:35:50;98638.34;;;3.06;100.00
21902;BME280;11115;46.038;14.612;2023-03-21T06:38:23;98658.00;;;3.03;100.00
21902;BME280;11115;46.038;14.612;2023-03-21T06:40:54;98653.88;;;3.00;100.00
21902;BME280;11115;46.038;14.612;2023-03-21T06:43:30;98661.41;;;3.15;100.00
21902;BME280;11115;46.038;14.612;2023-03-21T06:46:03;98669.28;;;3.33;100.00
21902;BME280;11115;46.038;14.612;2023-03-21T06:48:37;98659.16;;;3.66;100.00
21902;BME280;11115;46.038;14.612;2023-03-21T06:51:19;98672.84;;;3.66;100.00
21902;BME280;11115;46.038;14.612;2023-03-21T06:54:27;98645.28;;;3.73;100.00
21902;BME280;11115;46.038;14.612;2023-03-21T06:57:11;98678.69;;;3.75;100.00
21902;BME280;11115;46.038;14.612;2023-03-21T06:59:42;98672.16;;;3.81;100.00
21902;BME280;11115;46.038;14.612;2023-03-21T07:02:17;98669.28;;;3.92;100.00
21902;BME280;11115;46.038;14.612;2023-03-21T07:05:11;98670.38;;;3.96;100.00
21902;BME280;11115;46.038;14.612;2023-03-21T07:07:40;98670.22;;;4.08;100.00
21902;BME280;11115;46.038;14.612;2023-03-21T07:10:25;98651.13;;;4.23;100.00
21902;BME280;11115;46.038;14.612;2023-03-21T07:13:12;98651.75;;;4.31;100.00
21902;BME280;11115;46.038;14.612;2023-03-21T07:15:54;98673.41;;;4.32;100.00
21902;BME280;11115;46.038;14.612;2023-03-21T07:18:24;98654.47;;;4.25;100.00
21902;BME280;11115;46.038;14.612;2023-03-21T07:20:55;98671.97;;;4.67;100.00
21902;BME280;11115;46.038;14.612;2023-03-21T07:23:38;98670.59;;;4.69;100.00
21902;BME280;11115;46.038;14.612;2023-03-21T07:26:07;98666.19;;;4.63;100.00
21902;BME280;11115;46.038;14.612;2023-03-21T07:28:36;98678.94;;;4.95;100.00
21902;BME280;11115;46.038;14.612;2023-03-21T07:31:13;98665.84;;;5.07;100.00
21902;BME280;11115;46.038;14.612;2023-03-21T07:33:41;98663.97;;;5.23;100.00
21902;BME280;11115;46.038;14.612;2023-03-21T07:36:21;98672.50;;;5.26;100.00
21902;BME280;11115;46.038;14.612;2023-03-21T07:38:52;98643.72;;;5.44;100.00
21902;BME280;11115;46.038;14.612;2023-03-21T07:41:24;98667.09;;;5.82;100.00
21902;BME280;11115;46.038;14.612;2023-03-21T07:44:12;98660.50;;;5.88;100.00
21902;BME280;11115;46.038;14.612;2023-03-21T07:46:43;98664.88;;;5.74;100.00
21902;BME280;11115;46.038;14.612;2023-03-21T07:49:15;98650.34;;;5.78;100.00
21902;BME280;11115;46.038;14.612;2023-03-21T07:51:47;98661.38;;;5.99;100.00
21902;BME280;11115;46.038;14.612;2023-03-21T07:54:18;98651.19;;;6.30;100.00
21902;BME280;11115;46.038;14.612;2023-03-21T07:56:54;98650.81;;;6.77;100.00
21902;BME280;11115;46.038;14.612;2023-03-21T07:59:27;98641.81;;;6.31;100.00
21902;BME280;11115;46.038;14.612;2023-03-21T08:01:57;98651.91;;;6.76;100.00
21902;BME280;11115;46.038;14.612;2023-03-21T08:04:26;98633.78;;;6.65;100.00
21902;BME280;11115;46.038;14.612;2023-03-21T08:06:57;98645.22;;;6.97;100.00
21902;BME280;11115;46.038;14.612;2023-03-21T08:09:31;98640.00;;;6.96;100.00
21902;BME280;11115;46.038;14.612;2023-03-21T08:12:09;98628.63;;;7.18;100.00
21902;BME280;11115;46.038;14.612;2023-03-21T08:14:39;98618.38;;;7.28;100.00
21902;BME280;11115;46.038;14.612;2023-03-21T08:17:19;98636.47;;;7.40;100.00
21902;BME280;11115;46.038;14.612;2023-03-21T08:20:08;98636.38;;;7.94;100.00
21902;BME280;11115;46.038;14.612;2023-03-21T08:22:37;98641.00;;;7.99;100.00
21902;BME280;11115;46.038;14.612;2023-03-21T08:25:10;98633.81;;;8.03;100.00
21902;BME280;11115;46.038;14.612;2023-03-21T08:27:45;98616.75;;;8.30;100.00
21902;BME280;11115;46.038;14.612;2023-03-21T08:30:18;98620.31;;;8.83;100.00
21902;BME280;11115;46.038;14.612;2023-03-21T08:32:50;98619.63;;;8.96;100.00
21902;BME280;11115;46.038;14.612;2023-03-21T08:35:32;98626.38;;;9.09;100.00
21902;BME280;11115;46.038;14.612;2023-03-21T08:38:08;98626.28;;;9.14;100.00
21902;BME280;11115;46.038;14.612;2023-03-21T08:40:49;98622.50;;;9.29;100.00
21902;BME280;11115;46.038;14.612;2023-03-21T08:43:28;98625.84;;;9.44;100.00
21902;BME280;11115;46.038;14.612;2023-03-21T08:45:56;98625.94;;;9.58;100.00
21902;BME280;11115;46.038;14.612;2023-03-21T08:48:28;98612.13;;;9.39;100.00
21902;BME280;11115;46.038;14.612;2023-03-21T08:50:59;98606.53;;;9.44;100.00
21902;BME280;11115;46.038;14.612;2023-03-21T08:53:48;98608.28;;;9.92;100.00
21902;BME280;11115;46.038;14.612;2023-03-21T08:56:20;98605.22;;;9.93;100.00
21902;BME280;11115;46.038;14.612;2023-03-21T08:58:52;98598.25;;;9.96;100.00
21902;BME280;11115;46.038;14.612;2023-03-21T09:01:22;98606.63;;;10.70;100.00
21902;BME280;11115;46.038;14.612;2023-03-21T09:03:56;98581.75;;;10.83;100.00
21902;BME280;11115;46.038;14.612;2023-03-21T09:06:31;98591.97;;;10.97;100.00
21902;BME280;11115;46.038;14.612;2023-03-21T09:09:07;98584.50;;;10.83;100.00
21902;BME280;11115;46.038;14.612;2023-03-21T09:11:39;98563.81;;;10.81;100.00
21902;BME280;11115;46.038;14.612;2023-03-21T09:14:13;98573.63;;;10.73;100.00
21902;BME280;11115;46.038;14.612;2023-03-21T09:16:54;98565.59;;;11.13;100.00
21902;BME280;11115;46.038;14.612;2023-03-21T09:19:39;98555.38;;;11.36;100.00
21902;BME280;11115;46.038;14.612;2023-03-21T09:22:13;98514.63;;;11.14;100.00
21902;BME280;11115;46.038;14.612;2023-03-21T09:24:54;98572.28;;;11.48;100.00
21902;BME280;11115;46.038;14.612;2023-03-21T09:27:32;98565.97;;;11.56;100.00
21902;BME280;11115;46.038;14.612;2023-03-21T09:30:08;98565.53;;;11.99;100.00
21902;BME280;11115;46.038;14.612;2023-03-21T09:32:50;98551.06;;;12.81;100.00
21902;BME280;11115;46.038;14.612;2023-03-21T09:35:24;98545.22;;;12.83;100.00
21902;BME280;11115;46.038;14.612;2023-03-21T09:37:59;98554.69;;;12.82;100.00
21902;BME280;11115;46.038;14.612;2023-03-21T09:46:45;98527.69;;;13.30;100.00
21902;BME280;11115;46.038;14.612;2023-03-21T09:49:30;98532.91;;;13.58;100.00
21902;BME280;11115;46.038;14.612;2023-03-21T09:52:12;98524.75;;;13.44;100.00
21902;BME280;11115;46.038;14.612;2023-03-21T09:54:48;98529.78;;;13.85;100.00
21902;BME280;11115;46.038;14.612;2023-03-21T09:57:37;98531.91;;;13.80;100.00
21902;BME280;11115;46.038;14.612;2023-03-21T10:00:23;98529.25;;;14.01;100.00
21902;BME280;11115;46.038;14.612;2023-03-21T10:03:23;98521.47;;;13.59;100.00
21902;BME280;11115;46.038;14.612;2023-03-21T10:05:58;98510.31;;;13.94;100.00
21902;BME280;11115;46.038;14.612;2023-03-21T10:08:46;98521.00;;;14.47;100.00
21902;BME280;11115;46.038;14.612;2023-03-21T10:11:27;98518.03;;;14.44;100.00
21902;BME280;11115;46.038;14.612;2023-03-21T10:14:19;98516.13;;;14.65;100.00
21902;BME280;11115;46.038;14.612;2023-03-21T10:17:54;98499.75;;;14.72;100.00
21902;BME280;11115;46.038;14.612;2023-03-21T10:20:28;98500.97;;;15.13;100.00
21902;BME280;11115;46.038;14.612;2023-03-21T10:23:07;98475.78;;;15.01;100.00
21902;BME280;11115;46.038;14.612;2023-03-21T10:25:53;98496.13;;;15.22;100.00
21902;BME280;11115;46.038;14.612;2023-03-21T10:28:35;98496.63;;;15.45;100.00
21902;BME280;11115;46.038;14.612;2023-03-21T10:31:23;98499.41;;;15.45;100.00
21902;BME280;11115;46.038;14.612;2023-03-21T10:34:13;98473.69;;;15.18;100.00
21902;BME280;11115;46.038;14.612;2023-03-21T10:36:45;98485.06;;;16.33;100.00
21902;BME280;11115;46.038;14.612;2023-03-21T10:39:28;98477.38;;;16.18;100.00
21902;BME280;11115;46.038;14.612;2023-03-21T10:42:01;98476.78;;;16.00;100.00
21902;BME280;11115;46.038;14.612;2023-03-21T10:44:45;98469.94;;;16.22;100.00
21902;BME280;11115;46.038;14.612;2023-03-21T10:50:10;98438.31;;;16.30;100.00
21902;BME280;11115;46.038;14.612;2023-03-21T10:52:49;98458.38;;;16.69;100.00
21902;BME280;11115;46.038;14.612;2023-03-21T10:55:33;98458.84;;;16.83;100.00
21902;BME280;11115;46.038;14.612;2023-03-21T10:58:19;98458.38;;;16.81;100.00
21902;BME280;11115;46.038;14.612;2023-03-21T11:01:02;98446.25;;;16.77;100.00
21902;BME280;11115;46.038;14.612;2023-03-21T11:03:41;98449.16;;;17.33;100.00
21902;BME280;11115;46.038;14.612;2023-03-21T11:08:59;98436.31;;;17.44;100.00
21902;BME280;11115;46.038;14.612;2023-03-21T11:11:38;98413.28;;;17.63;100.00
21902;BME280;11115;46.038;14.612;2023-03-21T11:14:27;98420.34;;;17.73;100.00
21902;BME280;11115;46.038;14.612;2023-03-21T11:17:33;98430.00;;;18.19;100.00
21902;BME280;11115;46.038;14.612;2023-03-21T11:20:07;98425.59;;;18.34;100.00
21902;BME280;11115;46.038;14.612;2023-03-21T11:22:47;98419.63;;;18.19;100.00
21902;BME280;11115;46.038;14.612;2023-03-21T11:25:36;98396.84;;;18.05;100.00
21902;BME280;11115;46.038;14.612;2023-03-21T11:28:17;98409.94;;;18.64;100.00
21902;BME280;11115;46.038;14.612;2023-03-21T11:30:55;98407.22;;;19.03;100.00
21902;BME280;11115;46.038;14.612;2023-03-21T11:33:33;98400.16;;;18.90;100.00
21902;BME280;11115;46.038;14.612;2023-03-21T11:36:26;98379.69;;;18.89;100.00
21902;BME280;11115;46.038;14.612;2023-03-21T11:41:58;98377.00;;;19.31;100.00
21902;BME280;11115;46.038;14.612;2023-03-21T11:44:42;98376.69;;;19.36;100.00
21902;BME280;11115;46.038;14.612;2023-03-21T11:47:14;98378.41;;;19.60;100.00
21902;BME280;11115;46.038;14.612;2023-03-21T11:49:51;98363.50;;;19.37;100.00
21902;BME280;11115;46.038;14.612;2023-03-21T11:52:40;98352.63;;;19.74;100.00
21902;BME280;11115;46.038;14.612;2023-03-21T12:04:37;98348.75;;;19.82;90.12
21902;BME280;11115;46.038;14.612;2023-03-21T12:10:32;98347.44;;;20.45;100.00
21902;BME280;11115;46.038;14.612;2023-03-21T12:20:02;98326.38;;;20.88;90.23
21902;BME280;11115;46.038;14.612;2023-03-21T12:22:50;98309.59;;;20.95;77.93
21902;BME280;11115;46.038;14.612;2023-03-21T12:25:41;98329.47;;;20.04;66.14
21902;BME280;11115;46.038;14.612;2023-03-21T12:46:58;98297.22;;;21.33;55.36
21902;BME280;11115;46.038;14.612;2023-03-21T12:49:34;98266.88;;;22.45;56.31
21902;BME280;11115;46.038;14.612;2023-03-21T12:52:20;98284.38;;;22.76;58.18
21902;BME280;11115;46.038;14.612;2023-03-21T12:55:17;98290.13;;;22.35;50.47
21902;BME280;11115;46.038;14.612;2023-03-21T12:57:55;98276.81;;;22.28;50.15
21902;BME280;11115;46.038;14.612;2023-03-21T13:00:47;98278.13;;;23.21;58.49
21902;BME280;11115;46.038;14.612;2023-03-21T13:07:02;98268.53;;;23.47;52.52
21902;BME280;11115;46.038;14.612;2023-03-21T13:09:50;98266.06;;;22.48;52.32
21902;BME280;11115;46.038;14.612;2023-03-21T13:12:27;98258.94;;;22.65;48.96
21902;BME280;11115;46.038;14.612;2023-03-21T13:22:00;98262.03;;;23.32;47.88
21902;BME280;11115;46.038;14.612;2023-03-21T13:24:51;98247.56;;;23.41;53.25
21902;BME280;11115;46.038;14.612;2023-03-21T13:27:36;98238.97;;;22.98;46.10
21902;BME280;11115;46.038;14.612;2023-03-21T13:30:30;98236.38;;;22.68;46.97
21902;BME280;11115;46.038;14.612;2023-03-21T13:33:27;98235.81;;;23.18;49.94
21902;BME280;11115;46.038;14.612;2023-03-21T13:36:04;98228.09;;;23.04;47.32
21902;BME280;11115;46.038;14.612;2023-03-21T13:38:37;98213.28;;;23.36;51.71
21902;BME280;11115;46.038;14.612;2023-03-21T13:41:19;98228.31;;;22.67;48.72
21902;BME280;11115;46.038;14.612;2023-03-21T13:43:54;98228.91;;;22.28;47.06
21902;BME280;11115;46.038;14.612;2023-03-21T13:46:43;98231.69;;;22.21;48.27
21902;BME280;11115;46.038;14.612;2023-03-21T13:49:37;98224.06;;;23.09;47.34
21902;BME280;11115;46.038;14.612;2023-03-21T13:52:26;98228.91;;;22.97;47.01
21902;BME280;11115;46.038;14.612;2023-03-21T13:55:14;98225.50;;;22.63;46.26
21902;BME280;11115;46.038;14.612;2023-03-21T13:57:55;98214.72;;;22.83;51.67
21902;BME280;11115;46.038;14.612;2023-03-21T14:00:29;98190.47;;;22.71;48.75
21902;BME280;11115;46.038;14.612;2023-03-21T14:03:14;98203.38;;;22.72;45.70
21902;BME280;11115;46.038;14.612;2023-03-21T14:05:50;98205.84;;;22.81;45.34
21902;BME280;11115;46.038;14.612;2023-03-21T14:08:23;98207.13;;;23.01;46.75
21902;BME280;11115;46.038;14.612;2023-03-21T14:11:09;98197.31;;;22.74;46.21
21902;BME280;11115;46.038;14.612;2023-03-21T14:13:43;98190.91;;;22.77;44.12
21902;BME280;11115;46.038;14.612;2023-03-21T14:16:24;98191.94;;;23.59;49.61
21902;BME280;11115;46.038;14.612;2023-03-21T14:19:00;98179.41;;;24.17;46.57
21902;BME280;11115;46.038;14.612;2023-03-21T14:21:47;98169.13;;;25.50;38.43
21902;BME280;11115;46.038;14.612;2023-03-21T14:24:23;98178.78;;;27.41;34.92
21902;BME280;11115;46.038;14.612;2023-03-21T14:26:54;98179.97;;;27.94;34.92
21902;BME280;11115;46.038;14.612;2023-03-21T14:29:32;98171.88;;;28.59;32.34
21902;BME280;11115;46.038;14.612;2023-03-21T14:32:17;98159.81;;;29.11;32.88
21902;BME280;11115;46.038;14.612;2023-03-21T14:34:58;98157.88;;;27.28;32.92
21902;BME280;11115;46.038;14.612;2023-03-21T14:37:36;98163.03;;;26.04;34.62
21902;BME280;11115;46.038;14.612;2023-03-21T14:40:27;98165.22;;;25.85;37.39
21902;BME280;11115;46.038;14.612;2023-03-21T14:43:03;98163.88;;;26.72;35.34
21902;BME280;11115;46.038;14.612;2023-03-21T14:45:39;98162.97;;;26.79;38.62
21902;BME280;11115;46.038;14.612;2023-03-21T14:48:14;98154.47;;;25.59;38.53
21902;BME280;11115;46.038;14.612;2023-03-21T14:50:55;98149.00;;;25.34;39.28
21902;BME280;11115;46.038;14.612;2023-03-21T14:53:40;98146.59;;;24.59;36.94
21902;BME280;11115;46.038;14.612;2023-03-21T14:56:24;98128.22;;;24.96;37.36
21902;BME280;11115;46.038;14.612;2023-03-21T14:58:58;98142.16;;;25.83;38.96
21902;BME280;11115;46.038;14.612;2023-03-21T15:01:35;98140.88;;;24.73;43.52
21902;BME280;11115;46.038;14.612;2023-03-21T15:04:07;98142.22;;;24.22;43.26
21902;BME280;11115;46.038;14.612;2023-03-21T15:06:55;98134.44;;;25.35;43.03
21902;BME280;11115;46.038;14.612;2023-03-21T15:09:33;98138.34;;;26.00;40.75
21902;BME280;11115;46.038;14.612;2023-03-21T15:12:10;98115.59;;;25.66;35.01
21902;BME280;11115;46.038;14.612;2023-03-21T15:14:46;98135.91;;;26.40;36.68
21902;BME280;11115;46.038;14.612;2023-03-21T15:17:23;98134.63;;;27.63;33.44
21902;BME280;11115;46.038;14.612;2023-03-21T15:20:00;98131.16;;;27.75;33.41
21902;BME280;11115;46.038;14.612;2023-03-21T15:22:45;98089.94;;;27.13;37.60
21902;BME280;11115;46.038;14.612;2023-03-21T15:25:24;98130.44;;;28.97;33.13
21902;BME280;11115;46.038;14.612;2023-03-21T15:27:54;98117.31;;;28.01;33.10
21902;BME280;11115;46.038;14.612;2023-03-21T15:30:47;98122.22;;;27.77;34.96
21902;BME280;11115;46.038;14.612;2023-03-21T15:33:25;98101.56;;;26.65;32.08
21902;BME280;11115;46.038;14.612;2023-03-21T15:36:08;98112.47;;;27.51;32.80